sensor_id;sensor_type;location;lat;lon;timestamp;P1;durP1;ratioP1;P2;durP2;ratioP2
71759;SDS011;59919;48.112;16.280;2023-09-07T00:01:58;2.10;;;1.90;;
71759;SDS011;59919;48.112;16.280;2023-09-07T00:04:29;2.63;;;1.95;;
71759;SDS011;59919;48.112;16.280;2023-09-07T00:07:02;2.08;;;1.88;;
71759;SDS011;59919;48.112;16.280;2023-09-07T00:09:34;2.20;;;2.00;;
71759;SDS011;59919;48.112;16.280;2023-09-07T00:12:05;2.25;;;2.05;;
71759;SDS011;59919;48.112;16.280;2023-09-07T00:14:39;2.33;;;2.10;;
71759;SDS011;59919;48.112;16.280;2023-09-07T00:17:10;1.95;;;1.85;;
71759;SDS011;59919;48.112;16.280;2023-09-07T00:19:41;1.80;;;1.60;;
71759;SDS011;59919;48.112;16.280;2023-09-07T00:22:12;2.20;;;2.00;;
71759;SDS011;59919;48.112;16.280;2023-09-07T00:24:44;2.83;;;1.90;;
71759;SDS011;59919;48.112;16.280;2023-09-07T00:27:15;2.72;;;1.95;;
71759;SDS011;59919;48.112;16.280;2023-09-07T00:29:46;2.30;;;2.10;;
71759;SDS011;59919;48.112;16.280;2023-09-07T00:32:17;2.20;;;2.00;;
71759;SDS011;59919;48.112;16.280;2023-09-07T00:34:48;3.08;;;2.00;;
71759;SDS011;59919;48.112;16.280;2023-09-07T00:37:22;2.15;;;1.95;;
71759;SDS011;59919;48.112;16.280;2023-09-07T00:39:56;2.20;;;1.90;;
71759;SDS011;59919;48.112;16.280;2023-09-07T00:42:27;2.58;;;2.10;;
71759;SDS011;59919;48.112;16.280;2023-09-07T00:44:58;2.28;;;2.08;;
71759;SDS011;59919;48.112;16.280;2023-09-07T00:47:29;2.70;;;2.10;;
71759;SDS011;59919;48.112;16.280;2023-09-07T00:50:06;3.25;;;2.03;;
71759;SDS011;59919;48.112;16.280;2023-09-07T00:52:38;2.45;;;2.25;;
71759;SDS011;59919;48.112;16.280;2023-09-07T00:55:13;1.77;;;1.67;;
71759;SDS011;59919;48.112;16.280;2023-09-07T00:57:44;2.28;;;2.08;;
71759;SDS011;59919;48.112;16.280;2023-09-07T01:00:15;1.95;;;1.83;;
71759;SDS011;59919;48.112;16.280;2023-09-07T01:02:46;2.08;;;1.88;;
71759;SDS011;59919;48.112;16.280;2023-09-07T01:05:20;2.05;;;1.85;;
71759;SDS011;59919;48.112;16.280;2023-09-07T01:07:57;2.53;;;1.95;;
71759;SDS011;59919;48.112;16.280;2023-09-07T01:10:34;1.92;;;1.73;;
71759;SDS011;59919;48.112;16.280;2023-09-07T01:13:05;2.50;;;2.13;;
71759;SDS011;59919;48.112;16.280;2023-09-07T01:15:37;2.20;;;2.00;;
71759;SDS011;59919;48.112;16.280;2023-09-07T01:18:08;1.88;;;1.73;;
71759;SDS011;59919;48.112;16.280;2023-09-07T01:20:44;2.35;;;2.00;;
71759;SDS011;59919;48.112;16.280;2023-09-07T01:23:16;1.88;;;1.75;;
71759;SDS011;59919;48.112;16.280;2023-09-07T01:25:50;2.42;;;2.00;;
71759;SDS011;59919;48.112;16.280;2023-09-07T01:28:22;2.13;;;1.92;;
71759;SDS011;59919;48.112;16.280;2023-09-07T01:30:56;2.15;;;1.95;;
71759;SDS011;59919;48.112;16.280;2023-09-07T01:33:28;2.30;;;2.10;;
71759;SDS011;59919;48.112;16.280;2023-09-07T01:36:01;2.78;;;1.92;;
71759;SDS011;59919;48.112;16.280;2023-09-07T01:38:38;3.17;;;1.80;;
71759;SDS011;59919;48.112;16.280;2023-09-07T01:41:11;2.28;;;1.88;;
71759;SDS011;59919;48.112;16.280;2023-09-07T01:43:42;1.88;;;1.77;;
71759;SDS011;59919;48.112;16.280;2023-09-07T01:46:16;1.80;;;1.70;;
71759;SDS011;59919;48.112;16.280;2023-09-07T01:48:50;2.25;;;2.00;;
71759;SDS011;59919;48.112;16.280;2023-09-07T01:51:27;2.05;;;1.85;;
71759;SDS011;59919;48.112;16.280;2023-09-07T01:53:58;2.25;;;2.05;;
71759;SDS011;59919;48.112;16.280;2023-09-07T01:56:29;2.10;;;1.90;;
71759;SDS011;59919;48.112;16.280;2023-09-07T01:59:05;1.80;;;1.70;;
71759;SDS011;59919;48.112;16.280;2023-09-07T02:01:39;1.92;;;1.83;;
71759;SDS011;59919;48.112;16.280;2023-09-07T02:04:11;2.10;;;1.90;;
71759;SDS011;59919;48.112;16.280;2023-09-07T02:06:44;2.30;;;2.10;;
71759;SDS011;59919;48.112;16.280;2023-09-07T02:09:20;2.13;;;1.92;;
71759;SDS011;59919;48.112;16.280;2023-09-07T02:11:53;2.13;;;1.93;;
71759;SDS011;59919;48.112;16.280;2023-09-07T02:14:30;2.03;;;1.83;;
71759;SDS011;59919;48.112;16.280;2023-09-07T02:17:04;1.70;;;1.60;;
71759;SDS011;59919;48.112;16.280;2023-09-07T02:19:35;2.17;;;1.95;;
71759;SDS011;59919;48.112;16.280;2023-09-07T02:22:06;2.30;;;2.10;;
71759;SDS011;59919;48.112;16.280;2023-09-07T02:24:37;1.88;;;1.70;;
71759;SDS011;59919;48.112;16.280;2023-09-07T02:27:08;2.75;;;2.20;;
71759;SDS011;59919;48.112;16.280;2023-09-07T02:29:40;1.95;;;1.75;;
71759;SDS011;59919;48.112;16.280;2023-09-07T02:32:11;2.20;;;2.00;;
71759;SDS011;59919;48.112;16.280;2023-09-07T02:34:42;2.10;;;1.90;;
71759;SDS011;59919;48.112;16.280;2023-09-07T02:37:14;2.22;;;2.03;;
71759;SDS011;59919;48.112;16.280;2023-09-07T02:39:49;2.30;;;2.10;;
71759;SDS011;59919;48.112;16.280;2023-09-07T02:42:20;2.67;;;2.00;;
71759;SDS011;59919;48.112;16.280;2023-09-07T02:44:56;2.05;;;1.85;;
71759;SDS011;59919;48.112;16.280;2023-09-07T02:47:30;2.00;;;1.83;;
71759;SDS011;59919;48.112;16.280;2023-09-07T02:50:03;2.63;;;2.20;;
71759;SDS011;59919;48.112;16.280;2023-09-07T02:53:12;1.95;;;1.85;;
71759;SDS011;59919;48.112;16.280;2023-09-07T02:55:43;2.10;;;1.90;;
71759;SDS011;59919;48.112;16.280;2023-09-07T02:58:17;2.20;;;2.00;;
71759;SDS011;59919;48.112;16.280;2023-09-07T03:00:51;2.40;;;2.20;;
71759;SDS011;59919;48.112;16.280;2023-09-07T03:03:27;2.10;;;1.90;;
71759;SDS011;59919;48.112;16.280;2023-09-07T03:06:07;2.10;;;1.90;;
71759;SDS011;59919;48.112;16.280;2023-09-07T03:08:39;2.17;;;1.90;;
71759;SDS011;59919;48.112;16.280;2023-09-07T03:11:16;1.88;;;1.77;;
71759;SDS011;59919;48.112;16.280;2023-09-07T03:13:47;2.25;;;2.05;;
71759;SDS011;59919;48.112;16.280;2023-09-07T03:16:18;2.13;;;1.92;;
71759;SDS011;59919;48.112;16.280;2023-09-07T03:21:31;1.75;;;1.65;;
71759;SDS011;59919;48.112;16.280;2023-09-07T03:24:05;1.90;;;1.75;;
71759;SDS011;59919;48.112;16.280;2023-09-07T03:26:42;1.77;;;1.67;;
71759;SDS011;59919;48.112;16.280;2023-09-07T03:29:14;1.83;;;1.70;;
71759;SDS011;59919;48.112;16.280;2023-09-07T03:31:45;2.20;;;2.00;;
71759;SDS011;59919;48.112;16.280;2023-09-07T03:34:16;2.20;;;2.00;;
71759;SDS011;59919;48.112;16.280;2023-09-07T03:36:50;2.42;;;1.90;;
71759;SDS011;59919;48.112;16.280;2023-09-07T03:39:22;2.30;;;2.10;;
71759;SDS011;59919;48.112;16.280;2023-09-07T03:41:56;2.00;;;1.80;;
71759;SDS011;59919;48.112;16.280;2023-09-07T03:44:27;1.73;;;1.63;;
71759;SDS011;59919;48.112;16.280;2023-09-07T03:47:00;2.20;;;2.00;;
71759;SDS011;59919;48.112;16.280;2023-09-07T03:49:32;1.95;;;1.75;;
71759;SDS011;59919;48.112;16.280;2023-09-07T03:52:06;2.35;;;1.90;;
71759;SDS011;59919;48.112;16.280;2023-09-07T03:54:39;2.50;;;2.00;;
71759;SDS011;59919;48.112;16.280;2023-09-07T03:57:11;2.30;;;1.73;;
71759;SDS011;59919;48.112;16.280;2023-09-07T03:59:42;1.83;;;1.73;;
71759;SDS011;59919;48.112;16.280;2023-09-07T04:02:13;1.90;;;1.50;;
71759;SDS011;59919;48.112;16.280;2023-09-07T04:04:47;3.38;;;2.20;;
71759;SDS011;59919;48.112;16.280;2023-09-07T04:07:21;1.90;;;1.80;;
71759;SDS011;59919;48.112;16.280;2023-09-07T04:09:55;2.10;;;1.90;;
71759;SDS011;59919;48.112;16.280;2023-09-07T04:12:28;2.00;;;1.83;;
71759;SDS011;59919;48.112;16.280;2023-09-07T04:15:02;2.30;;;2.10;;
71759;SDS011;59919;48.112;16.280;2023-09-07T04:17:33;2.35;;;2.10;;
71759;SDS011;59919;48.112;16.280;2023-09-07T04:22:43;2.20;;;2.00;;
71759;SDS011;59919;48.112;16.280;2023-09-07T04:25:17;2.63;;;2.22;;
71759;SDS011;59919;48.112;16.280;2023-09-07T04:27:48;2.47;;;1.98;;
71759;SDS011;59919;48.112;16.280;2023-09-07T04:30:19;2.13;;;1.80;;
71759;SDS011;59919;48.112;16.280;2023-09-07T04:32:53;2.13;;;1.92;;
71759;SDS011;59919;48.112;16.280;2023-09-07T04:35:28;2.30;;;2.10;;
71759;SDS011;59919;48.112;16.280;2023-09-07T04:38:00;2.57;;;1.97;;
71759;SDS011;59919;48.112;16.280;2023-09-07T04:40:31;2.10;;;1.90;;
71759;SDS011;59919;48.112;16.280;2023-09-07T04:43:03;2.13;;;1.90;;
71759;SDS011;59919;48.112;16.280;2023-09-07T04:45:34;2.72;;;2.17;;
71759;SDS011;59919;48.112;16.280;2023-09-07T04:48:05;2.85;;;2.00;;
71759;SDS011;59919;48.112;16.280;2023-09-07T04:50:36;2.42;;;2.22;;
71759;SDS011;59919;48.112;16.280;2023-09-07T04:53:07;2.28;;;1.90;;
71759;SDS011;59919;48.112;16.280;2023-09-07T04:55:38;2.67;;;2.20;;
71759;SDS011;59919;48.112;16.280;2023-09-07T04:58:14;2.33;;;2.13;;
71759;SDS011;59919;48.112;16.280;2023-09-07T05:00:45;2.67;;;2.15;;
71759;SDS011;59919;48.112;16.280;2023-09-07T05:03:16;2.60;;;2.40;;
71759;SDS011;59919;48.112;16.280;2023-09-07T05:05:53;2.85;;;2.13;;
71759;SDS011;59919;48.112;16.280;2023-09-07T05:08:24;2.92;;;2.40;;
71759;SDS011;59919;48.112;16.280;2023-09-07T05:11:01;3.00;;;1.88;;
71759;SDS011;59919;48.112;16.280;2023-09-07T05:13:38;3.85;;;2.38;;
71759;SDS011;59919;48.112;16.280;2023-09-07T05:16:10;6.90;;;2.08;;
71759;SDS011;59919;48.112;16.280;2023-09-07T05:18:43;5.70;;;2.33;;
71759;SDS011;59919;48.112;16.280;2023-09-07T05:21:15;17.95;;;9.05;;
71759;SDS011;59919;48.112;16.280;2023-09-07T05:23:48;5.68;;;2.58;;
71759;SDS011;59919;48.112;16.280;2023-09-07T05:26:22;13.05;;;4.90;;
71759;SDS011;59919;48.112;16.280;2023-09-07T05:28:56;7.25;;;3.08;;
71759;SDS011;59919;48.112;16.280;2023-09-07T05:31:29;2.97;;;2.40;;
71759;SDS011;59919;48.112;16.280;2023-09-07T05:34:06;9.65;;;5.20;;
71759;SDS011;59919;48.112;16.280;2023-09-07T05:36:37;7.53;;;3.63;;
71759;SDS011;59919;48.112;16.280;2023-09-07T05:39:11;7.47;;;2.90;;
71759;SDS011;59919;48.112;16.280;2023-09-07T05:41:42;4.53;;;2.55;;
71759;SDS011;59919;48.112;16.280;2023-09-07T05:44:15;2.45;;;2.10;;
71759;SDS011;59919;48.112;16.280;2023-09-07T05:46:52;2.70;;;2.05;;
71759;SDS011;59919;48.112;16.280;2023-09-07T05:49:25;2.13;;;1.92;;
71759;SDS011;59919;48.112;16.280;2023-09-07T05:51:56;4.20;;;1.98;;
71759;SDS011;59919;48.112;16.280;2023-09-07T05:54:27;2.90;;;2.05;;
71759;SDS011;59919;48.112;16.280;2023-09-07T05:56:58;3.30;;;2.15;;
71759;SDS011;59919;48.112;16.280;2023-09-07T05:59:32;2.92;;;2.20;;
71759;SDS011;59919;48.112;16.280;2023-09-07T06:02:04;3.63;;;2.17;;
71759;SDS011;59919;48.112;16.280;2023-09-07T06:04:38;5.10;;;2.75;;
71759;SDS011;59919;48.112;16.280;2023-09-07T06:07:09;4.25;;;2.50;;
71759;SDS011;59919;48.112;16.280;2023-09-07T06:09:41;2.47;;;2.28;;
71759;SDS011;59919;48.112;16.280;2023-09-07T06:12:18;5.22;;;2.80;;
71759;SDS011;59919;48.112;16.280;2023-09-07T06:14:50;3.45;;;2.47;;
71759;SDS011;59919;48.112;16.280;2023-09-07T06:17:23;4.78;;;3.05;;
71759;SDS011;59919;48.112;16.280;2023-09-07T06:19:56;4.25;;;2.72;;
71759;SDS011;59919;48.112;16.280;2023-09-07T06:22:31;4.43;;;2.70;;
71759;SDS011;59919;48.112;16.280;2023-09-07T06:25:02;2.75;;;2.28;;
71759;SDS011;59919;48.112;16.280;2023-09-07T06:27:36;3.00;;;2.60;;
71759;SDS011;59919;48.112;16.280;2023-09-07T06:30:11;2.90;;;2.55;;
71759;SDS011;59919;48.112;16.280;2023-09-07T06:32:45;3.45;;;2.80;;
71759;SDS011;59919;48.112;16.280;2023-09-07T06:35:16;5.13;;;2.88;;
71759;SDS011;59919;48.112;16.280;2023-09-07T06:37:49;4.30;;;3.00;;
71759;SDS011;59919;48.112;16.280;2023-09-07T06:40:20;4.20;;;3.20;;
71759;SDS011;59919;48.112;16.280;2023-09-07T06:42:51;25.92;;;5.30;;
71759;SDS011;59919;48.112;16.280;2023-09-07T06:45:23;16.63;;;5.05;;
71759;SDS011;59919;48.112;16.280;2023-09-07T06:47:54;6.18;;;3.70;;
71759;SDS011;59919;48.112;16.280;2023-09-07T06:50:25;5.53;;;3.53;;
71759;SDS011;59919;48.112;16.280;2023-09-07T06:52:56;6.63;;;3.53;;
71759;SDS011;59919;48.112;16.280;2023-09-07T06:55:28;5.65;;;3.60;;
71759;SDS011;59919;48.112;16.280;2023-09-07T06:57:59;5.43;;;3.58;;
71759;SDS011;59919;48.112;16.280;2023-09-07T07:00:33;8.18;;;3.53;;
71759;SDS011;59919;48.112;16.280;2023-09-07T07:03:04;6.75;;;3.67;;
71759;SDS011;59919;48.112;16.280;2023-09-07T07:05:42;8.43;;;3.40;;
71759;SDS011;59919;48.112;16.280;2023-09-07T07:08:13;6.45;;;3.67;;
71759;SDS011;59919;48.112;16.280;2023-09-07T07:10:48;4.93;;;3.42;;
71759;SDS011;59919;48.112;16.280;2023-09-07T07:13:20;6.75;;;3.45;;
71759;SDS011;59919;48.112;16.280;2023-09-07T07:15:51;6.05;;;3.67;;
71759;SDS011;59919;48.112;16.280;2023-09-07T07:18:29;7.20;;;3.45;;
71759;SDS011;59919;48.112;16.280;2023-09-07T07:21:00;6.03;;;3.75;;
71759;SDS011;59919;48.112;16.280;2023-09-07T07:23:33;5.90;;;3.40;;
71759;SDS011;59919;48.112;16.280;2023-09-07T07:26:06;7.82;;;3.33;;
71759;SDS011;59919;48.112;16.280;2023-09-07T07:28:39;4.95;;;3.30;;
71759;SDS011;59919;48.112;16.280;2023-09-07T07:31:10;9.05;;;3.30;;
71759;SDS011;59919;48.112;16.280;2023-09-07T07:33:41;9.18;;;3.47;;
71759;SDS011;59919;48.112;16.280;2023-09-07T07:36:15;4.13;;;3.10;;
71759;SDS011;59919;48.112;16.280;2023-09-07T07:38:46;4.82;;;3.22;;
71759;SDS011;59919;48.112;16.280;2023-09-07T07:41:17;4.38;;;3.45;;
71759;SDS011;59919;48.112;16.280;2023-09-07T07:43:50;5.20;;;2.90;;
71759;SDS011;59919;48.112;16.280;2023-09-07T07:46:24;7.00;;;3.28;;
71759;SDS011;59919;48.112;16.280;2023-09-07T07:48:57;9.13;;;3.70;;
71759;SDS011;59919;48.112;16.280;2023-09-07T07:51:31;7.45;;;3.83;;
71759;SDS011;59919;48.112;16.280;2023-09-07T07:54:02;4.88;;;3.38;;
71759;SDS011;59919;48.112;16.280;2023-09-07T07:56:38;6.75;;;3.53;;
71759;SDS011;59919;48.112;16.280;2023-09-07T07:59:10;4.22;;;3.03;;
71759;SDS011;59919;48.112;16.280;2023-09-07T08:01:41;4.05;;;3.33;;
71759;SDS011;59919;48.112;16.280;2023-09-07T08:04:14;3.90;;;2.83;;
71759;SDS011;59919;48.112;16.280;2023-09-07T08:06:45;6.55;;;3.58;;
71759;SDS011;59919;48.112;16.280;2023-09-07T08:09:19;18.25;;;4.28;;
71759;SDS011;59919;48.112;16.280;2023-09-07T08:11:50;5.93;;;2.78;;
71759;SDS011;59919;48.112;16.280;2023-09-07T08:14:22;4.85;;;3.10;;
71759;SDS011;59919;48.112;16.280;2023-09-07T08:16:54;4.85;;;3.28;;
71759;SDS011;59919;48.112;16.280;2023-09-07T08:19:28;4.55;;;3.10;;
71759;SDS011;59919;48.112;16.280;2023-09-07T08:22:00;6.72;;;3.20;;
71759;SDS011;59919;48.112;16.280;2023-09-07T08:24:34;5.10;;;3.10;;
71759;SDS011;59919;48.112;16.280;2023-09-07T08:27:05;4.40;;;2.97;;
71759;SDS011;59919;48.112;16.280;2023-09-07T08:29:36;4.82;;;3.25;;
71759;SDS011;59919;48.112;16.280;2023-09-07T08:32:09;3.58;;;2.97;;
71759;SDS011;59919;48.112;16.280;2023-09-07T08:34:44;5.68;;;3.03;;
71759;SDS011;59919;48.112;16.280;2023-09-07T08:37:18;5.45;;;3.38;;
71759;SDS011;59919;48.112;16.280;2023-09-07T08:39:51;6.05;;;3.28;;
71759;SDS011;59919;48.112;16.280;2023-09-07T08:42:24;5.18;;;3.13;;
71759;SDS011;59919;48.112;16.280;2023-09-07T08:44:55;4.68;;;2.83;;
71759;SDS011;59919;48.112;16.280;2023-09-07T08:47:36;4.70;;;3.10;;
71759;SDS011;59919;48.112;16.280;2023-09-07T08:50:08;4.78;;;3.15;;
71759;SDS011;59919;48.112;16.280;2023-09-07T08:52:41;7.25;;;3.13;;
71759;SDS011;59919;48.112;16.280;2023-09-07T08:55:16;5.15;;;3.28;;
71759;SDS011;59919;48.112;16.280;2023-09-07T08:57:50;3.72;;;3.10;;
71759;SDS011;59919;48.112;16.280;2023-09-07T09:00:28;4.43;;;3.35;;
71759;SDS011;59919;48.112;16.280;2023-09-07T09:03:01;5.00;;;2.97;;
71759;SDS011;59919;48.112;16.280;2023-09-07T09:05:34;3.33;;;2.95;;
71759;SDS011;59919;48.112;16.280;2023-09-07T09:08:09;4.05;;;3.13;;
71759;SDS011;59919;48.112;16.280;2023-09-07T09:10:40;4.45;;;3.30;;
71759;SDS011;59919;48.112;16.280;2023-09-07T09:13:12;3.55;;;2.97;;
71759;SDS011;59919;48.112;16.280;2023-09-07T09:15:47;4.30;;;3.13;;
71759;SDS011;59919;48.112;16.280;2023-09-07T09:18:21;3.53;;;2.67;;
71759;SDS011;59919;48.112;16.280;2023-09-07T09:20:56;4.88;;;3.08;;
71759;SDS011;59919;48.112;16.280;2023-09-07T09:23:34;8.57;;;4.07;;
71759;SDS011;59919;48.112;16.280;2023-09-07T09:26:10;5.60;;;2.97;;
71759;SDS011;59919;48.112;16.280;2023-09-07T09:28:41;6.70;;;3.03;;
71759;SDS011;59919;48.112;16.280;2023-09-07T09:31:13;5.78;;;3.15;;
71759;SDS011;59919;48.112;16.280;2023-09-07T09:33:48;5.85;;;3.05;;
71759;SDS011;59919;48.112;16.280;2023-09-07T09:39:03;3.08;;;2.60;;
71759;SDS011;59919;48.112;16.280;2023-09-07T09:41:34;3.60;;;2.92;;
71759;SDS011;59919;48.112;16.280;2023-09-07T09:44:12;5.35;;;3.05;;
71759;SDS011;59919;48.112;16.280;2023-09-07T09:46:45;3.25;;;2.92;;
71759;SDS011;59919;48.112;16.280;2023-09-07T09:49:18;5.70;;;3.30;;
71759;SDS011;59919;48.112;16.280;2023-09-07T09:51:51;6.22;;;3.53;;
71759;SDS011;59919;48.112;16.280;2023-09-07T09:54:25;6.80;;;3.20;;
71759;SDS011;59919;48.112;16.280;2023-09-07T09:56:59;4.97;;;3.47;;
71759;SDS011;59919;48.112;16.280;2023-09-07T09:59:32;5.28;;;3.28;;
71759;SDS011;59919;48.112;16.280;2023-09-07T10:02:07;5.10;;;3.53;;
71759;SDS011;59919;48.112;16.280;2023-09-07T10:04:39;7.07;;;3.20;;
71759;SDS011;59919;48.112;16.280;2023-09-07T10:07:13;4.35;;;3.10;;
71759;SDS011;59919;48.112;16.280;2023-09-07T10:09:50;3.33;;;2.90;;
71759;SDS011;59919;48.112;16.280;2023-09-07T10:12:26;6.72;;;2.88;;
71759;SDS011;59919;48.112;16.280;2023-09-07T10:17:29;4.82;;;3.20;;
71759;SDS011;59919;48.112;16.280;2023-09-07T10:20:04;4.32;;;3.13;;
71759;SDS011;59919;48.112;16.280;2023-09-07T10:22:38;3.92;;;3.10;;
71759;SDS011;59919;48.112;16.280;2023-09-07T10:25:19;4.25;;;3.10;;
71759;SDS011;59919;48.112;16.280;2023-09-07T10:27:53;3.72;;;2.97;;
71759;SDS011;59919;48.112;16.280;2023-09-07T10:30:24;3.88;;;3.25;;
71759;SDS011;59919;48.112;16.280;2023-09-07T10:32:55;4.97;;;2.83;;
71759;SDS011;59919;48.112;16.280;2023-09-07T10:35:28;3.28;;;2.63;;
71759;SDS011;59919;48.112;16.280;2023-09-07T10:38:06;3.85;;;3.00;;
71759;SDS011;59919;48.112;16.280;2023-09-07T10:40:37;3.33;;;3.00;;
71759;SDS011;59919;48.112;16.280;2023-09-07T10:43:08;5.47;;;3.20;;
71759;SDS011;59919;48.112;16.280;2023-09-07T10:45:43;3.60;;;3.15;;
71759;SDS011;59919;48.112;16.280;2023-09-07T10:48:15;3.33;;;2.80;;
71759;SDS011;59919;48.112;16.280;2023-09-07T10:50:47;3.08;;;2.78;;
71759;SDS011;59919;48.112;16.280;2023-09-07T10:53:33;3.63;;;2.97;;
71759;SDS011;59919;48.112;16.280;2023-09-07T10:56:04;3.90;;;3.13;;
71759;SDS011;59919;48.112;16.280;2023-09-07T10:58:38;5.78;;;3.15;;
71759;SDS011;59919;48.112;16.280;2023-09-07T11:01:12;3.70;;;2.80;;
71759;SDS011;59919;48.112;16.280;2023-09-07T11:03:43;4.15;;;2.90;;
71759;SDS011;59919;48.112;16.280;2023-09-07T11:06:16;3.40;;;2.90;;
71759;SDS011;59919;48.112;16.280;2023-09-07T11:08:51;3.28;;;2.92;;
71759;SDS011;59919;48.112;16.280;2023-09-07T11:11:24;3.28;;;2.97;;
71759;SDS011;59919;48.112;16.280;2023-09-07T11:13:58;3.55;;;2.67;;
71759;SDS011;59919;48.112;16.280;2023-09-07T11:16:30;3.55;;;2.90;;
71759;SDS011;59919;48.112;16.280;2023-09-07T11:19:07;3.47;;;3.17;;
71759;SDS011;59919;48.112;16.280;2023-09-07T11:21:45;3.35;;;3.03;;
71759;SDS011;59919;48.112;16.280;2023-09-07T11:24:16;3.25;;;2.95;;
71759;SDS011;59919;48.112;16.280;2023-09-07T11:26:48;3.47;;;3.17;;
71759;SDS011;59919;48.112;16.280;2023-09-07T11:29:19;3.30;;;2.88;;
71759;SDS011;59919;48.112;16.280;2023-09-07T11:31:50;3.35;;;3.05;;
71759;SDS011;59919;48.112;16.280;2023-09-07T11:34:22;2.78;;;2.50;;
71759;SDS011;59919;48.112;16.280;2023-09-07T11:36:55;3.60;;;3.20;;
71759;SDS011;59919;48.112;16.280;2023-09-07T11:39:28;4.07;;;3.00;;
71759;SDS011;59919;48.112;16.280;2023-09-07T11:41:59;3.45;;;2.63;;
71759;SDS011;59919;48.112;16.280;2023-09-07T11:44:30;3.38;;;3.08;;
71759;SDS011;59919;48.112;16.280;2023-09-07T11:47:04;3.10;;;2.80;;
71759;SDS011;59919;48.112;16.280;2023-09-07T11:49:36;3.90;;;3.00;;
71759;SDS011;59919;48.112;16.280;2023-09-07T11:52:07;3.17;;;2.83;;
71759;SDS011;59919;48.112;16.280;2023-09-07T11:54:40;4.72;;;3.08;;
71759;SDS011;59919;48.112;16.280;2023-09-07T11:57:17;2.90;;;2.63;;
71759;SDS011;59919;48.112;16.280;2023-09-07T11:59:48;4.20;;;3.15;;
71759;SDS011;59919;48.112;16.280;2023-09-07T12:02:19;2.88;;;2.67;;
71759;SDS011;59919;48.112;16.280;2023-09-07T12:04:51;3.25;;;2.95;;
71759;SDS011;59919;48.112;16.280;2023-09-07T12:07:22;4.35;;;3.03;;
71759;SDS011;59919;48.112;16.280;2023-09-07T12:09:53;6.68;;;3.13;;
71759;SDS011;59919;48.112;16.280;2023-09-07T12:12:28;3.42;;;3.13;;
71759;SDS011;59919;48.112;16.280;2023-09-07T12:15:01;5.32;;;2.97;;
71759;SDS011;59919;48.112;16.280;2023-09-07T12:17:36;3.58;;;2.80;;
71759;SDS011;59919;48.112;16.280;2023-09-07T12:20:09;4.18;;;2.78;;
71759;SDS011;59919;48.112;16.280;2023-09-07T12:22:44;2.85;;;2.65;;
71759;SDS011;59919;48.112;16.280;2023-09-07T12:25:15;3.35;;;2.78;;
71759;SDS011;59919;48.112;16.280;2023-09-07T12:27:47;3.17;;;2.80;;
71759;SDS011;59919;48.112;16.280;2023-09-07T12:30:18;4.70;;;2.95;;
71759;SDS011;59919;48.112;16.280;2023-09-07T12:32:51;4.13;;;2.88;;
71759;SDS011;59919;48.112;16.280;2023-09-07T12:35:25;4.03;;;2.88;;
71759;SDS011;59919;48.112;16.280;2023-09-07T12:37:59;4.10;;;2.47;;
71759;SDS011;59919;48.112;16.280;2023-09-07T12:40:30;2.95;;;2.72;;
71759;SDS011;59919;48.112;16.280;2023-09-07T12:43:01;3.80;;;2.90;;
71759;SDS011;59919;48.112;16.280;2023-09-07T12:45:37;3.10;;;2.72;;
71759;SDS011;59919;48.112;16.280;2023-09-07T12:48:08;3.60;;;2.80;;
71759;SDS011;59919;48.112;16.280;2023-09-07T12:50:40;4.93;;;3.00;;
71759;SDS011;59919;48.112;16.280;2023-09-07T12:53:11;3.35;;;2.80;;
71759;SDS011;59919;48.112;16.280;2023-09-07T12:55:47;3.92;;;2.88;;
71759;SDS011;59919;48.112;16.280;2023-09-07T12:58:18;2.83;;;2.63;;
71759;SDS011;59919;48.112;16.280;2023-09-07T13:00:51;3.17;;;2.88;;
71759;SDS011;59919;48.112;16.280;2023-09-07T13:03:22;3.65;;;2.80;;
71759;SDS011;59919;48.112;16.280;2023-09-07T13:05:53;3.10;;;2.80;;
71759;SDS011;59919;48.112;16.280;2023-09-07T13:08:24;4.30;;;2.97;;
71759;SDS011;59919;48.112;16.280;2023-09-07T13:10:56;3.90;;;2.80;;
71759;SDS011;59919;48.112;16.280;2023-09-07T13:13:30;4.00;;;2.78;;
71759;SDS011;59919;48.112;16.280;2023-09-07T13:16:01;13.65;;;3.50;;
71759;SDS011;59919;48.112;16.280;2023-09-07T13:18:32;10.27;;;3.00;;
71759;SDS011;59919;48.112;16.280;2023-09-07T13:21:05;4.65;;;2.88;;
71759;SDS011;59919;48.112;16.280;2023-09-07T13:23:37;3.75;;;2.85;;
71759;SDS011;59919;48.112;16.280;2023-09-07T13:26:11;5.30;;;2.83;;
71759;SDS011;59919;48.112;16.280;2023-09-07T13:28:47;17.38;;;3.50;;
71759;SDS011;59919;48.112;16.280;2023-09-07T13:31:18;9.85;;;2.80;;
71759;SDS011;59919;48.112;16.280;2023-09-07T13:33:51;5.68;;;3.10;;
71759;SDS011;59919;48.112;16.280;2023-09-07T13:36:22;4.10;;;2.85;;
71759;SDS011;59919;48.112;16.280;2023-09-07T13:38:54;6.32;;;2.97;;
71759;SDS011;59919;48.112;16.280;2023-09-07T13:41:30;4.25;;;2.95;;
71759;SDS011;59919;48.112;16.280;2023-09-07T13:44:04;4.25;;;2.90;;
71759;SDS011;59919;48.112;16.280;2023-09-07T13:46:38;4.15;;;2.80;;
71759;SDS011;59919;48.112;16.280;2023-09-07T13:49:10;3.17;;;2.88;;
71759;SDS011;59919;48.112;16.280;2023-09-07T13:51:44;4.18;;;2.85;;
71759;SDS011;59919;48.112;16.280;2023-09-07T13:54:20;5.10;;;2.90;;
71759;SDS011;59919;48.112;16.280;2023-09-07T13:56:51;4.15;;;2.72;;
71759;SDS011;59919;48.112;16.280;2023-09-07T13:59:29;4.03;;;2.95;;
71759;SDS011;59919;48.112;16.280;2023-09-07T14:02:03;3.45;;;2.42;;
71759;SDS011;59919;48.112;16.280;2023-09-07T14:04:37;3.70;;;2.80;;
71759;SDS011;59919;48.112;16.280;2023-09-07T14:07:08;3.45;;;2.70;;
71759;SDS011;59919;48.112;16.280;2023-09-07T14:09:39;2.97;;;2.67;;
71759;SDS011;59919;48.112;16.280;2023-09-07T14:12:10;2.95;;;2.65;;
71759;SDS011;59919;48.112;16.280;2023-09-07T14:14:41;3.30;;;3.00;;
71759;SDS011;59919;48.112;16.280;2023-09-07T14:17:12;7.00;;;2.97;;
71759;SDS011;59919;48.112;16.280;2023-09-07T14:19:43;3.42;;;2.63;;
71759;SDS011;59919;48.112;16.280;2023-09-07T14:22:16;3.03;;;2.70;;
71759;SDS011;59919;48.112;16.280;2023-09-07T14:24:47;3.03;;;2.63;;
71759;SDS011;59919;48.112;16.280;2023-09-07T14:27:20;6.38;;;2.95;;
71759;SDS011;59919;48.112;16.280;2023-09-07T14:29:52;5.15;;;2.80;;
71759;SDS011;59919;48.112;16.280;2023-09-07T14:32:23;3.75;;;2.58;;
71759;SDS011;59919;48.112;16.280;2023-09-07T14:34:56;4.40;;;2.88;;
71759;SDS011;59919;48.112;16.280;2023-09-07T14:37:27;3.33;;;2.88;;
71759;SDS011;59919;48.112;16.280;2023-09-07T14:39:58;6.60;;;2.60;;
71759;SDS011;59919;48.112;16.280;2023-09-07T14:42:30;3.40;;;2.83;;
71759;SDS011;59919;48.112;16.280;2023-09-07T14:45:04;5.53;;;2.97;;
71759;SDS011;59919;48.112;16.280;2023-09-07T14:47:36;4.93;;;2.97;;
71759;SDS011;59919;48.112;16.280;2023-09-07T14:50:09;4.05;;;2.30;;
71759;SDS011;59919;48.112;16.280;2023-09-07T14:52:41;3.30;;;2.50;;
71759;SDS011;59919;48.112;16.280;2023-09-07T14:55:18;7.50;;;3.08;;
71759;SDS011;59919;48.112;16.280;2023-09-07T14:58:00;3.28;;;2.38;;
71759;SDS011;59919;48.112;16.280;2023-09-07T15:00:32;5.68;;;2.58;;
71759;SDS011;59919;48.112;16.280;2023-09-07T15:03:07;3.50;;;2.80;;
71759;SDS011;59919;48.112;16.280;2023-09-07T15:05:39;4.15;;;2.40;;
71759;SDS011;59919;48.112;16.280;2023-09-07T15:08:11;3.63;;;2.75;;
71759;SDS011;59919;48.112;16.280;2023-09-07T15:10:45;2.88;;;2.58;;
71759;SDS011;59919;48.112;16.280;2023-09-07T15:13:19;3.28;;;2.72;;
71759;SDS011;59919;48.112;16.280;2023-09-07T15:15:52;2.58;;;2.38;;
71759;SDS011;59919;48.112;16.280;2023-09-07T15:18:25;4.53;;;3.00;;